createdAt,value
2022-08-02T00:02:22.983Z,50.46
2022-08-02T00:04:49.524Z,50.46
2022-08-02T00:07:16.065Z,50.45
2022-08-02T00:09:42.817Z,50.48
2022-08-02T00:12:09.788Z,50.49
2022-08-02T00:14:36.823Z,50.50
2022-08-02T00:17:05.192Z,50.51
2022-08-02T00:19:31.622Z,50.50
2022-08-02T00:21:58.071Z,50.48
2022-08-02T00:24:30.969Z,50.48
2022-08-02T00:26:59.095Z,50.50
2022-08-02T00:29:25.550Z,50.49
2022-08-02T00:31:51.947Z,50.48
2022-08-02T00:34:29.101Z,50.52
2022-08-02T00:36:57.963Z,50.51
2022-08-02T00:39:33.558Z,50.53
2022-08-02T00:42:02.281Z,50.53
2022-08-02T00:44:28.769Z,50.52
2022-08-02T00:46:55.307Z,50.51
2022-08-02T00:49:21.854Z,50.53
2022-08-02T00:51:48.347Z,50.54
2022-08-02T00:54:14.802Z,50.53
2022-08-02T00:56:50.116Z,50.52
2022-08-02T00:59:18.475Z,50.55
2022-08-02T01:01:57.128Z,50.54
2022-08-02T01:04:31.507Z,50.57
2022-08-02T01:07:00.441Z,50.56
2022-08-02T01:09:27.394Z,50.54
2022-08-02T01:11:53.793Z,50.57
2022-08-02T01:14:21.654Z,50.56
2022-08-02T01:17:02.794Z,50.57
2022-08-02T01:19:35.182Z,50.59
2022-08-02T01:22:39.645Z,50.60
2022-08-02T01:25:18.246Z,50.57
2022-08-02T01:28:09.321Z,50.58
2022-08-02T01:30:37.742Z,50.56
2022-08-02T01:33:07.292Z,50.57
2022-08-02T01:35:47.165Z,50.58
2022-08-02T01:38:27.900Z,50.57
2022-08-02T01:40:56.532Z,50.57
2022-08-02T01:43:28.301Z,50.56
2022-08-02T01:45:56.442Z,50.57
2022-08-02T01:48:25.637Z,50.57
2022-08-02T01:50:53.793Z,50.55
2022-08-02T01:53:21.835Z,50.54
2022-08-02T01:55:57.682Z,50.56
2022-08-02T01:58:30.602Z,50.54
2022-08-02T02:00:59.464Z,50.54
2022-08-02T02:03:27.768Z,50.54
2022-08-02T02:05:57.735Z,50.55
2022-08-02T02:08:29.165Z,50.53
2022-08-02T02:10:57.299Z,50.54
2022-08-02T02:13:33.177Z,50.52
2022-08-02T02:16:04.743Z,50.54
2022-08-02T02:18:34.283Z,50.53
2022-08-02T02:21:00.774Z,50.53
2022-08-02T02:23:28.015Z,50.53
2022-08-02T02:26:03.928Z,50.52
2022-08-02T02:28:32.607Z,50.52
2022-08-02T02:31:05.127Z,50.53
2022-08-02T02:33:35.272Z,50.52
2022-08-02T02:36:03.459Z,50.50
2022-08-02T02:38:32.889Z,50.50
2022-08-02T02:41:02.908Z,50.50
2022-08-02T02:43:32.334Z,50.49
2022-08-02T02:45:59.738Z,50.48
2022-08-02T02:48:29.028Z,50.49
2022-08-02T02:50:56.140Z,50.46
2022-08-02T02:53:23.282Z,50.47
2022-08-02T02:56:01.980Z,50.49
2022-08-02T02:58:31.128Z,50.48
2022-08-02T03:00:57.702Z,50.48
2022-08-02T03:03:25.748Z,50.50
2022-08-02T03:05:52.268Z,50.52
2022-08-02T03:08:18.959Z,50.50
2022-08-02T03:10:45.873Z,50.52
2022-08-02T03:13:12.917Z,50.54
2022-08-02T03:15:40.110Z,50.50
2022-08-02T03:18:06.610Z,50.50
2022-08-02T03:20:33.189Z,50.48
2022-08-02T03:22:59.608Z,50.52
2022-08-02T03:25:26.210Z,50.49
2022-08-02T03:27:52.586Z,50.46
2022-08-02T03:30:18.994Z,50.48
2022-08-02T03:32:48.313Z,50.48
2022-08-02T03:35:22.866Z,50.48
2022-08-02T03:37:52.376Z,50.49
2022-08-02T03:40:19.146Z,50.48
2022-08-02T03:42:46.394Z,50.50
2022-08-02T03:45:13.528Z,50.50
2022-08-02T03:47:40.485Z,50.51
2022-08-02T03:50:08.590Z,50.51
2022-08-02T03:52:36.668Z,50.52
2022-08-02T03:55:03.477Z,50.52
2022-08-02T03:57:29.989Z,50.52
2022-08-02T03:59:56.648Z,50.53
2022-08-02T04:02:23.071Z,50.53
2022-08-02T04:04:49.472Z,50.52
2022-08-02T04:07:15.933Z,50.53
2022-08-02T04:10:02.478Z,50.51
2022-08-02T04:12:28.888Z,50.53
2022-08-02T04:14:55.375Z,50.54
2022-08-02T04:17:23.160Z,50.54
2022-08-02T04:20:02.048Z,50.56
2022-08-02T04:22:42.126Z,50.56
2022-08-02T04:25:15.571Z,50.58
2022-08-02T04:27:50.087Z,50.59
2022-08-02T04:30:32.147Z,50.59
2022-08-02T04:32:59.596Z,50.61
2022-08-02T04:35:26.738Z,50.62
2022-08-02T04:38:05.806Z,50.61
2022-08-02T04:40:37.356Z,50.61
2022-08-02T04:43:03.833Z,50.61
2022-08-02T04:45:31.396Z,50.61
2022-08-02T04:48:06.108Z,50.63
2022-08-02T04:50:33.510Z,50.60
2022-08-02T04:53:00.017Z,50.60
2022-08-02T04:55:26.537Z,50.58
2022-08-02T04:57:53.321Z,50.57
2022-08-02T05:00:19.972Z,50.54
2022-08-02T05:02:46.708Z,50.54
2022-08-02T05:05:13.133Z,50.52
2022-08-02T05:07:39.569Z,50.49
2022-08-02T05:10:06.452Z,50.51
2022-08-02T05:12:32.933Z,50.47
2022-08-02T05:14:59.344Z,50.46
2022-08-02T05:17:25.808Z,50.45
2022-08-02T05:19:52.228Z,50.49
2022-08-02T05:22:18.669Z,50.48
2022-08-02T05:24:45.088Z,50.48
2022-08-02T05:27:16.532Z,50.49
2022-08-02T05:29:51.222Z,50.50
2022-08-02T05:32:20.389Z,50.58
2022-08-02T05:34:50.321Z,50.72
2022-08-02T05:37:16.806Z,50.72
2022-08-02T05:39:55.789Z,50.73
2022-08-02T05:42:23.256Z,50.85
2022-08-02T05:44:49.755Z,51.21
2022-08-02T05:47:16.402Z,57.42
2022-08-02T05:49:42.851Z,100.00
2022-08-02T05:52:16.122Z,100.00
2022-08-02T05:55:05.073Z,100.00
2022-08-02T05:58:11.792Z,100.00
2022-08-02T06:00:41.272Z,100.00
2022-08-02T06:03:31.562Z,100.00
2022-08-02T06:06:14.253Z,100.00
2022-08-02T06:08:50.270Z,100.00
2022-08-02T06:11:21.453Z,100.00
2022-08-02T06:13:47.948Z,100.00
2022-08-02T06:16:14.978Z,100.00
2022-08-02T06:18:42.571Z,100.00
2022-08-02T06:22:31.641Z,100.00
2022-08-02T06:23:59.120Z,100.00
2022-08-02T06:26:27.665Z,100.00
2022-08-02T06:28:56.024Z,100.00
2022-08-02T06:31:22.953Z,100.00
2022-08-02T06:33:49.497Z,100.00
2022-08-02T06:36:34.496Z,100.00
2022-08-02T06:39:24.712Z,100.00
2022-08-02T06:41:54.990Z,100.00
2022-08-02T06:44:49.704Z,100.00
2022-08-02T06:47:12.426Z,100.00
2022-08-02T06:49:52.953Z,100.00
2022-08-02T06:52:30.684Z,100.00
2022-08-02T06:55:02.132Z,100.00
2022-08-02T06:57:29.389Z,100.00
2022-08-02T06:59:56.309Z,100.00
2022-08-02T07:02:22.943Z,100.00
2022-08-02T07:04:49.556Z,100.00
2022-08-02T07:07:16.072Z,100.00
2022-08-02T07:10:00.491Z,100.00
2022-08-02T07:12:29.487Z,100.00
2022-08-02T07:14:56.759Z,100.00
2022-08-02T07:17:23.143Z,100.00
2022-08-02T07:19:49.567Z,100.00
2022-08-02T07:22:16.461Z,100.00
2022-08-02T07:24:43.157Z,100.00
2022-08-02T07:27:11.654Z,100.00
2022-08-02T07:29:46.101Z,100.00
2022-08-02T07:32:18.062Z,100.00
2022-08-02T07:34:50.615Z,100.00
2022-08-02T07:37:35.358Z,100.00
2022-08-02T07:40:12.650Z,100.00
2022-08-02T07:42:40.340Z,100.00
2022-08-02T07:45:07.148Z,100.00
2022-08-02T07:47:39.601Z,100.00
2022-08-02T07:50:07.655Z,100.00
2022-08-02T07:52:34.811Z,100.00
2022-08-02T07:55:01.505Z,100.00
2022-08-02T07:57:28.122Z,100.00
2022-08-02T07:59:54.520Z,100.00
2022-08-02T08:02:20.970Z,100.00
2022-08-02T08:04:47.365Z,100.00
2022-08-02T08:07:13.806Z,100.00
2022-08-02T08:09:40.572Z,100.00
2022-08-02T08:12:08.866Z,100.00
2022-08-02T08:14:36.315Z,100.00
2022-08-02T08:17:03.367Z,100.00
2022-08-02T08:19:50.121Z,100.00
2022-08-02T08:22:16.308Z,100.00
2022-08-02T08:24:42.722Z,100.00
2022-08-02T08:27:09.273Z,100.00
2022-08-02T08:29:35.678Z,100.00
2022-08-02T08:32:02.121Z,100.00
2022-08-02T08:34:28.562Z,100.00
2022-08-02T08:36:54.967Z,100.00
2022-08-02T08:39:21.483Z,100.00
2022-08-02T08:41:47.974Z,100.00
2022-08-02T08:44:14.476Z,100.00
2022-08-02T08:46:43.534Z,100.00
2022-08-02T08:49:16.630Z,100.00
2022-08-02T08:51:44.209Z,100.00
2022-08-02T08:54:15.195Z,100.00
2022-08-02T08:56:43.086Z,100.00
2022-08-02T08:59:10.735Z,100.00
2022-08-02T09:01:49.820Z,100.00
2022-08-02T09:04:21.016Z,100.00
2022-08-02T09:06:51.857Z,100.00
2022-08-02T09:09:19.629Z,100.00
2022-08-02T09:11:46.179Z,100.00
2022-08-02T09:14:26.576Z,100.00
2022-08-02T09:16:53.017Z,100.00
2022-08-02T09:19:24.706Z,100.00
2022-08-02T09:22:12.486Z,100.00
2022-08-02T09:24:42.168Z,100.00
2022-08-02T09:27:17.311Z,100.00
2022-08-02T09:30:13.613Z,100.00
2022-08-02T09:32:46.264Z,100.00
2022-08-02T09:35:12.744Z,100.00
2022-08-02T09:37:39.149Z,100.00
2022-08-02T09:40:06.088Z,100.00
2022-08-02T09:42:32.681Z,100.00
2022-08-02T09:45:01.346Z,100.00
2022-08-02T09:47:31.092Z,100.00
2022-08-02T09:49:58.561Z,100.00
2022-08-02T09:52:36.857Z,100.00
2022-08-02T09:55:11.799Z,100.00
2022-08-02T09:57:38.402Z,100.00
2022-08-02T10:00:14.903Z,100.00
2022-08-02T10:03:21.537Z,100.00
2022-08-02T10:05:55.670Z,100.00
2022-08-02T10:08:22.482Z,100.00
2022-08-02T10:10:48.905Z,100.00
2022-08-02T10:13:19.984Z,100.00
2022-08-02T10:15:50.449Z,100.00
2022-08-02T10:18:37.006Z,100.00
2022-08-02T10:21:07.673Z,100.00
2022-08-02T10:23:36.353Z,100.00
2022-08-02T10:26:03.238Z,100.00
2022-08-02T10:28:29.796Z,100.00
2022-08-02T10:30:57.552Z,100.00
2022-08-02T10:33:25.913Z,100.00
2022-08-02T10:36:04.560Z,100.00
2022-08-02T10:38:35.202Z,100.00
2022-08-02T10:41:01.703Z,100.00
2022-08-02T10:43:37.032Z,100.00
2022-08-02T10:46:30.788Z,100.00
2022-08-02T10:52:03.481Z,100.00
2022-08-02T10:54:42.822Z,100.00
2022-08-02T10:57:31.253Z,100.00
2022-08-02T11:00:00.648Z,100.00
2022-08-02T11:02:47.697Z,100.00
2022-08-02T11:05:43.398Z,100.00
2022-08-02T11:08:21.539Z,100.00
2022-08-02T11:10:48.089Z,100.00
2022-08-02T11:13:18.666Z,100.00
2022-08-02T11:15:50.981Z,100.00
2022-08-02T11:18:18.149Z,100.00
2022-08-02T11:20:44.691Z,100.00
2022-08-02T11:23:44.188Z,100.00
2022-08-02T11:26:30.516Z,100.00
2022-08-02T11:28:58.501Z,100.00
2022-08-02T11:31:25.829Z,100.00
2022-08-02T11:33:53.497Z,100.00
2022-08-02T11:36:20.341Z,100.00
2022-08-02T11:38:49.614Z,100.00
2022-08-02T11:41:46.806Z,100.00
2022-08-02T11:44:07.251Z,100.00
2022-08-02T11:46:33.957Z,100.00
2022-08-02T11:49:18.416Z,100.00
2022-08-02T11:51:56.088Z,100.00
2022-08-02T11:54:35.245Z,100.00
2022-08-02T11:57:18.946Z,100.00
2022-08-02T11:59:48.992Z,100.00
2022-08-02T12:02:16.465Z,100.00
2022-08-02T12:04:44.156Z,100.00
2022-08-02T12:07:10.629Z,100.00
2022-08-02T12:09:41.117Z,100.00
2022-08-02T12:12:08.086Z,100.00
2022-08-02T12:14:42.173Z,100.00
2022-08-02T12:17:08.928Z,100.00
2022-08-02T12:19:37.523Z,100.00
2022-08-02T12:22:27.247Z,100.00
2022-08-02T12:25:14.952Z,100.00
2022-08-02T12:28:23.749Z,100.00
2022-08-02T12:31:00.275Z,100.00
2022-08-02T12:33:51.315Z,100.00
2022-08-02T12:36:25.187Z,100.00
2022-08-02T12:39:04.856Z,100.00
2022-08-02T12:41:32.762Z,100.00
2022-08-02T12:44:00.612Z,100.00
2022-08-02T12:46:27.141Z,100.00
2022-08-02T12:49:16.910Z,100.00
2022-08-02T12:51:55.659Z,100.00
2022-08-02T12:54:38.755Z,100.00
2022-08-02T12:57:12.966Z,100.00
2022-08-02T12:59:40.985Z,100.00
2022-08-02T13:02:10.282Z,100.00
2022-08-02T13:04:37.799Z,100.00
2022-08-02T13:07:05.161Z,100.00
2022-08-02T13:09:42.640Z,100.00
2022-08-02T13:12:10.575Z,100.00
2022-08-02T13:14:41.712Z,100.00
2022-08-02T13:17:12.172Z,100.00
2022-08-02T13:19:39.079Z,100.00
2022-08-02T13:22:05.879Z,100.00
2022-08-02T13:24:41.185Z,100.00
2022-08-02T13:27:20.772Z,100.00
2022-08-02T13:29:47.937Z,100.00
2022-08-02T13:32:14.785Z,100.00
2022-08-02T13:34:41.608Z,100.00
2022-08-02T13:37:08.084Z,100.00
2022-08-02T13:39:34.704Z,100.00
2022-08-02T13:42:01.223Z,100.00
2022-08-02T13:44:27.746Z,100.00
2022-08-02T13:46:54.210Z,100.00
2022-08-02T13:49:21.670Z,100.00
2022-08-02T13:51:48.714Z,100.00
2022-08-02T13:54:16.483Z,100.00
2022-08-02T13:56:43.188Z,100.00
2022-08-02T13:59:54.867Z,100.00
2022-08-02T14:01:56.760Z,100.00
2022-08-02T14:04:23.990Z,100.00
2022-08-02T14:06:50.525Z,100.00
2022-08-02T14:09:17.478Z,100.00
2022-08-02T14:11:45.241Z,100.00
2022-08-02T14:14:16.712Z,100.00
2022-08-02T14:16:45.371Z,100.00
2022-08-02T14:19:15.471Z,100.00
2022-08-02T14:21:48.073Z,100.00
2022-08-02T14:24:16.131Z,100.00
2022-08-02T14:26:43.389Z,100.00
2022-08-02T14:29:10.374Z,100.00
2022-08-02T14:31:41.637Z,100.00
2022-08-02T14:34:11.039Z,100.00
2022-08-02T14:36:38.231Z,100.00
2022-08-02T14:39:04.945Z,100.00
2022-08-02T14:41:31.381Z,100.00
2022-08-02T14:43:57.793Z,100.00
2022-08-02T14:46:24.297Z,100.00
2022-08-02T14:48:50.735Z,100.00
2022-08-02T14:51:17.247Z,100.00
2022-08-02T14:53:49.110Z,100.00
2022-08-02T14:56:16.333Z,100.00
2022-08-02T14:58:42.726Z,100.00
2022-08-02T15:01:09.365Z,100.00
2022-08-02T15:03:43.242Z,100.00
2022-08-02T15:06:10.349Z,100.00
2022-08-02T15:08:36.835Z,100.00
2022-08-02T15:11:03.518Z,100.00
2022-08-02T15:13:30.010Z,100.00
2022-08-02T15:15:56.730Z,100.00
2022-08-02T15:18:23.187Z,100.00
2022-08-02T15:20:57.340Z,100.00
2022-08-02T15:23:25.203Z,100.00
2022-08-02T15:26:06.167Z,100.00
2022-08-02T15:28:33.591Z,100.00
2022-08-02T15:31:00.001Z,100.00
2022-08-02T15:33:26.735Z,100.00
2022-08-02T15:35:53.111Z,100.00
2022-08-02T15:38:19.507Z,100.00
2022-08-02T15:40:45.924Z,100.00
2022-08-02T15:43:12.442Z,100.00
2022-08-02T15:45:40.277Z,100.00
2022-08-02T15:48:06.878Z,100.00
2022-08-02T15:50:33.286Z,100.00
2022-08-02T15:52:59.706Z,100.00
2022-08-02T15:55:26.146Z,100.00
2022-08-02T15:57:52.576Z,100.00
2022-08-02T16:00:19.277Z,100.00
2022-08-02T16:02:47.037Z,100.00
2022-08-02T16:05:15.153Z,100.00
2022-08-02T16:07:41.546Z,100.00
2022-08-02T16:10:08.321Z,100.00
2022-08-02T16:12:34.960Z,100.00
2022-08-02T16:15:01.387Z,100.00
2022-08-02T16:17:51.273Z,100.00
2022-08-02T16:20:14.429Z,100.00
2022-08-02T16:22:41.138Z,100.00
2022-08-02T16:25:08.061Z,100.00
2022-08-02T16:27:34.477Z,100.00
2022-08-02T16:30:20.901Z,100.00
2022-08-02T16:32:47.493Z,100.00
2022-08-02T16:35:13.937Z,100.00
2022-08-02T16:37:52.160Z,100.00
2022-08-02T16:40:19.351Z,100.00
2022-08-02T16:42:50.254Z,100.00
2022-08-02T16:45:19.938Z,100.00
2022-08-02T16:47:55.858Z,100.00
2022-08-02T16:50:27.237Z,100.00
2022-08-02T16:52:56.158Z,100.00
2022-08-02T16:55:22.565Z,100.00
2022-08-02T16:57:50.200Z,100.00
2022-08-02T17:00:17.001Z,100.00
2022-08-02T17:02:44.141Z,100.00
2022-08-02T17:05:14.702Z,100.00
2022-08-02T17:08:08.204Z,100.00
2022-08-02T17:10:28.617Z,100.00
2022-08-02T17:12:58.512Z,100.00
2022-08-02T17:16:17.180Z,100.00
2022-08-02T17:18:26.452Z,100.00
2022-08-02T17:20:54.149Z,100.00
2022-08-02T17:23:20.678Z,100.00
2022-08-02T17:25:52.288Z,100.00
2022-08-02T17:28:19.407Z,100.00
2022-08-02T17:30:45.821Z,100.00
2022-08-02T17:33:12.516Z,100.00
2022-08-02T17:35:43.310Z,100.00
2022-08-02T17:38:26.152Z,100.00
2022-08-02T17:40:54.848Z,100.00
2022-08-02T17:43:21.607Z,100.00
2022-08-02T17:45:59.750Z,100.00
2022-08-02T17:48:36.725Z,100.00
2022-08-02T17:51:03.852Z,100.00
2022-08-02T17:53:36.447Z,100.00
2022-08-02T17:56:02.993Z,100.00
2022-08-02T17:58:33.122Z,100.00
2022-08-02T18:01:00.177Z,100.00
2022-08-02T18:03:27.879Z,100.00
2022-08-02T18:05:55.482Z,100.00
2022-08-02T18:08:23.644Z,100.00
2022-08-02T18:10:51.857Z,100.00
2022-08-02T18:13:18.281Z,100.00
2022-08-02T18:15:45.462Z,100.00
2022-08-02T18:18:13.097Z,100.00
2022-08-02T18:20:40.929Z,100.00
2022-08-02T18:23:10.913Z,100.00
2022-08-02T18:25:45.730Z,100.00
2022-08-02T18:28:14.279Z,100.00
2022-08-02T18:30:40.856Z,100.00
2022-08-02T18:33:55.359Z,100.00
2022-08-02T18:35:55.269Z,100.00
2022-08-02T18:38:22.915Z,100.00
2022-08-02T18:40:51.181Z,100.00
2022-08-02T18:43:18.249Z,100.00
2022-08-02T18:46:05.323Z,100.00
2022-08-02T18:48:31.186Z,100.00
2022-08-02T18:50:57.868Z,100.00
2022-08-02T18:53:39.016Z,100.00
2022-08-02T18:56:08.612Z,100.00
2022-08-02T18:58:35.126Z,100.00
2022-08-02T19:01:05.140Z,100.00
2022-08-02T19:03:41.446Z,100.00
2022-08-02T19:06:16.306Z,100.00
2022-08-02T19:08:46.373Z,100.00
2022-08-02T19:11:35.114Z,100.00
2022-08-02T19:14:02.175Z,100.00
2022-08-02T19:16:37.002Z,100.00
2022-08-02T19:19:07.386Z,100.00
2022-08-02T19:22:15.840Z,100.00
2022-08-02T19:24:20.263Z,100.00
2022-08-02T19:26:51.106Z,100.00
2022-08-02T19:29:19.587Z,100.00
2022-08-02T19:32:06.338Z,72.94
2022-08-02T19:34:52.866Z,61.38
2022-08-02T19:37:19.282Z,57.52
2022-08-02T19:39:46.015Z,54.59
2022-08-02T19:42:12.557Z,53.40
2022-08-02T19:44:43.201Z,52.37
2022-08-02T19:47:11.925Z,51.88
2022-08-02T19:49:40.305Z,51.60
2022-08-02T19:52:20.476Z,51.10
2022-08-02T19:54:55.545Z,51.02
2022-08-02T19:57:25.017Z,50.99
2022-08-02T19:59:52.222Z,50.96
2022-08-02T20:02:19.209Z,50.92
2022-08-02T20:04:49.949Z,50.90
2022-08-02T20:07:48.222Z,50.87
2022-08-02T20:10:11.003Z,50.83
2022-08-02T20:12:39.164Z,50.81
2022-08-02T20:15:14.380Z,50.80
2022-08-02T20:17:43.652Z,50.79
2022-08-02T20:20:14.671Z,50.77
2022-08-02T20:22:41.109Z,50.78
2022-08-02T20:25:10.140Z,50.77
2022-08-02T20:27:51.016Z,50.76
2022-08-02T20:30:18.085Z,50.75
2022-08-02T20:35:30.901Z,50.75
2022-08-02T20:38:02.185Z,50.75
2022-08-02T20:40:29.342Z,50.74
2022-08-02T20:42:55.990Z,50.74
2022-08-02T20:45:23.604Z,50.72
2022-08-02T20:47:54.992Z,50.72
2022-08-02T20:50:31.704Z,50.72
2022-08-02T20:53:03.940Z,50.72
2022-08-02T20:55:31.657Z,50.71
2022-08-02T20:58:00.299Z,50.70
2022-08-02T21:00:28.311Z,50.71
2022-08-02T21:02:55.466Z,50.71
2022-08-02T21:05:26.696Z,50.70
2022-08-02T21:08:11.547Z,50.71
2022-08-02T21:10:41.734Z,50.70
2022-08-02T21:13:22.376Z,50.69
2022-08-02T21:15:50.869Z,50.69
2022-08-02T21:18:27.702Z,50.68
2022-08-02T21:21:03.925Z,50.63
2022-08-02T21:23:30.352Z,50.63
2022-08-02T21:26:03.002Z,50.60
2022-08-02T21:28:43.572Z,50.60
2022-08-02T21:31:18.357Z,50.58
2022-08-02T21:33:58.221Z,50.58
2022-08-02T21:38:58.109Z,50.53
2022-08-02T21:41:24.575Z,50.55
2022-08-02T21:44:06.985Z,50.53
2022-08-02T21:46:33.452Z,50.52
2022-08-02T21:49:01.333Z,50.54
2022-08-02T21:51:34.255Z,50.54
2022-08-02T21:54:17.720Z,50.53
2022-08-02T21:56:52.017Z,50.53
2022-08-02T21:59:25.281Z,50.53
2022-08-02T22:01:53.131Z,50.53
2022-08-02T22:04:20.726Z,50.53
2022-08-02T22:06:49.114Z,50.56
2022-08-02T22:09:44.108Z,50.55
2022-08-02T22:12:09.742Z,50.58
2022-08-02T22:14:37.198Z,50.62
2022-08-02T22:17:08.458Z,50.62
2022-08-02T22:19:35.910Z,50.64
2022-08-02T22:22:02.327Z,50.65
2022-08-02T22:24:30.073Z,50.65
2022-08-02T22:26:57.032Z,50.67
2022-08-02T22:29:23.581Z,50.68
2022-08-02T22:31:50.100Z,50.70
2022-08-02T22:34:36.989Z,50.71
2022-08-02T22:37:05.716Z,50.73
2022-08-02T22:39:32.426Z,50.74
2022-08-02T22:42:05.381Z,50.76
2022-08-02T22:47:19.669Z,50.79
2022-08-02T22:49:54.408Z,50.78
2022-08-02T22:52:22.789Z,50.81
2022-08-02T22:54:50.822Z,50.81
2022-08-02T22:57:17.755Z,50.82
2022-08-02T22:58:55.695Z,50.75
2022-08-02T22:59:09.787Z,50.74
2022-08-02T22:59:56.697Z,50.83
2022-08-02T23:02:23.100Z,50.86
2022-08-02T23:04:51.793Z,50.87
2022-08-02T23:07:18.496Z,50.87
2022-08-02T23:09:44.912Z,50.88
2022-08-02T23:12:11.399Z,50.89
2022-08-02T23:14:37.831Z,50.89
2022-08-02T23:17:04.281Z,50.92
2022-08-02T23:19:30.690Z,50.91
2022-08-02T23:22:02.313Z,50.92
2022-08-02T23:24:29.568Z,50.93
2022-08-02T23:26:56.038Z,50.93
2022-08-02T23:29:22.454Z,50.95
2022-08-02T23:31:48.890Z,50.95
2022-08-02T23:34:16.009Z,50.95
2022-08-02T23:36:42.448Z,50.96
2022-08-02T23:39:08.992Z,50.96
2022-08-02T23:41:35.425Z,50.96
2022-08-02T23:44:13.921Z,50.98
2022-08-02T23:46:45.728Z,50.99
2022-08-02T23:49:13.511Z,50.97
2022-08-02T23:51:40.006Z,50.98
2022-08-02T23:54:06.449Z,50.99
2022-08-02T23:56:33.076Z,50.98
2022-08-02T23:58:59.527Z,50.99
